sensor_id;sensor_type;location;lat;lon;timestamp;temperature;humidity
46336;DHT22;31365;48.858;8.530;2023-04-25T00:02:06;8.90;99.90
46336;DHT22;31365;48.858;8.530;2023-04-25T00:04:35;8.90;99.90
46336;DHT22;31365;48.858;8.530;2023-04-25T00:07:05;8.90;99.90
46336;DHT22;31365;48.858;8.530;2023-04-25T00:09:33;8.90;99.90
46336;DHT22;31365;48.858;8.530;2023-04-25T00:12:01;8.90;99.90
46336;DHT22;31365;48.858;8.530;2023-04-25T00:14:30;8.90;99.90
46336;DHT22;31365;48.858;8.530;2023-04-25T00:17:02;8.90;99.90
46336;DHT22;31365;48.858;8.530;2023-04-25T00:19:31;8.90;99.90
46336;DHT22;31365;48.858;8.530;2023-04-25T00:21:59;8.90;99.90
46336;DHT22;31365;48.858;8.530;2023-04-25T00:24:27;8.90;99.90
46336;DHT22;31365;48.858;8.530;2023-04-25T00:26:55;8.90;99.90
46336;DHT22;31365;48.858;8.530;2023-04-25T00:29:24;8.90;99.90
46336;DHT22;31365;48.858;8.530;2023-04-25T00:31:52;8.80;99.90
46336;DHT22;31365;48.858;8.530;2023-04-25T00:34:21;8.80;99.90
46336;DHT22;31365;48.858;8.530;2023-04-25T00:36:50;8.80;99.90
46336;DHT22;31365;48.858;8.530;2023-04-25T00:39:18;8.70;99.90
46336;DHT22;31365;48.858;8.530;2023-04-25T00:41:46;8.70;99.90
46336;DHT22;31365;48.858;8.530;2023-04-25T00:44:20;8.60;99.90
46336;DHT22;31365;48.858;8.530;2023-04-25T00:46:49;8.60;99.90
46336;DHT22;31365;48.858;8.530;2023-04-25T00:49:18;8.60;99.90
46336;DHT22;31365;48.858;8.530;2023-04-25T00:51:48;8.60;99.90
46336;DHT22;31365;48.858;8.530;2023-04-25T00:54:17;8.60;99.90
46336;DHT22;31365;48.858;8.530;2023-04-25T00:56:45;8.70;99.90
46336;DHT22;31365;48.858;8.530;2023-04-25T00:59:14;8.70;99.90
46336;DHT22;31365;48.858;8.530;2023-04-25T01:01:43;8.80;99.90
46336;DHT22;31365;48.858;8.530;2023-04-25T01:04:13;8.80;99.90
46336;DHT22;31365;48.858;8.530;2023-04-25T01:06:41;8.80;99.90
46336;DHT22;31365;48.858;8.530;2023-04-25T01:09:12;8.80;99.90
46336;DHT22;31365;48.858;8.530;2023-04-25T01:11:41;8.70;99.90
46336;DHT22;31365;48.858;8.530;2023-04-25T01:14:10;8.70;99.90
46336;DHT22;31365;48.858;8.530;2023-04-25T01:16:38;8.70;99.90
46336;DHT22;31365;48.858;8.530;2023-04-25T01:19:09;8.60;99.90
46336;DHT22;31365;48.858;8.530;2023-04-25T01:21:40;8.60;99.90
46336;DHT22;31365;48.858;8.530;2023-04-25T01:24:09;8.60;99.90
46336;DHT22;31365;48.858;8.530;2023-04-25T01:26:37;8.60;99.90
46336;DHT22;31365;48.858;8.530;2023-04-25T01:29:07;8.60;99.90
46336;DHT22;31365;48.858;8.530;2023-04-25T01:31:36;8.70;99.90
46336;DHT22;31365;48.858;8.530;2023-04-25T01:34:05;8.70;99.90
46336;DHT22;31365;48.858;8.530;2023-04-25T01:36:33;8.70;99.90
46336;DHT22;31365;48.858;8.530;2023-04-25T01:39:03;8.60;99.90
46336;DHT22;31365;48.858;8.530;2023-04-25T01:41:32;8.60;99.90
46336;DHT22;31365;48.858;8.530;2023-04-25T01:44:02;8.60;99.90
46336;DHT22;31365;48.858;8.530;2023-04-25T01:46:31;8.60;99.90
46336;DHT22;31365;48.858;8.530;2023-04-25T01:49:00;8.60;99.90
46336;DHT22;31365;48.858;8.530;2023-04-25T01:51:30;8.60;99.90
46336;DHT22;31365;48.858;8.530;2023-04-25T01:53:59;8.60;99.90
46336;DHT22;31365;48.858;8.530;2023-04-25T01:56:31;8.60;99.90
46336;DHT22;31365;48.858;8.530;2023-04-25T01:59:01;8.60;99.90
46336;DHT22;31365;48.858;8.530;2023-04-25T02:01:48;8.60;99.90
46336;DHT22;31365;48.858;8.530;2023-04-25T02:04:24;8.60;99.90
46336;DHT22;31365;48.858;8.530;2023-04-25T02:06:52;8.60;99.90
46336;DHT22;31365;48.858;8.530;2023-04-25T02:09:22;8.60;99.90
46336;DHT22;31365;48.858;8.530;2023-04-25T02:11:55;8.50;99.90
46336;DHT22;31365;48.858;8.530;2023-04-25T02:14:34;8.50;99.90
46336;DHT22;31365;48.858;8.530;2023-04-25T02:17:06;8.50;99.90
46336;DHT22;31365;48.858;8.530;2023-04-25T02:19:35;8.50;99.90
46336;DHT22;31365;48.858;8.530;2023-04-25T02:22:03;8.50;99.90
46336;DHT22;31365;48.858;8.530;2023-04-25T02:24:31;8.50;99.90
46336;DHT22;31365;48.858;8.530;2023-04-25T02:27:02;8.60;99.90
46336;DHT22;31365;48.858;8.530;2023-04-25T02:29:30;8.60;99.90
46336;DHT22;31365;48.858;8.530;2023-04-25T02:31:58;8.60;99.90
46336;DHT22;31365;48.858;8.530;2023-04-25T02:34:26;8.60;99.90
46336;DHT22;31365;48.858;8.530;2023-04-25T02:36:54;8.70;99.90
46336;DHT22;31365;48.858;8.530;2023-04-25T02:39:22;8.70;99.90
46336;DHT22;31365;48.858;8.530;2023-04-25T02:41:52;8.60;99.90
46336;DHT22;31365;48.858;8.530;2023-04-25T02:44:22;8.60;99.90
46336;DHT22;31365;48.858;8.530;2023-04-25T02:46:50;8.60;99.90
46336;DHT22;31365;48.858;8.530;2023-04-25T02:49:18;8.50;99.90
46336;DHT22;31365;48.858;8.530;2023-04-25T02:51:47;8.50;99.90
46336;DHT22;31365;48.858;8.530;2023-04-25T02:54:15;8.50;99.90
46336;DHT22;31365;48.858;8.530;2023-04-25T02:56:46;8.60;99.90
46336;DHT22;31365;48.858;8.530;2023-04-25T02:59:20;8.50;99.90
46336;DHT22;31365;48.858;8.530;2023-04-25T03:01:49;8.50;99.90
46336;DHT22;31365;48.858;8.530;2023-04-25T03:04:17;8.40;99.90
46336;DHT22;31365;48.858;8.530;2023-04-25T03:06:47;8.40;99.90
46336;DHT22;31365;48.858;8.530;2023-04-25T03:09:16;8.30;99.90
46336;DHT22;31365;48.858;8.530;2023-04-25T03:11:45;8.40;99.90
46336;DHT22;31365;48.858;8.530;2023-04-25T03:14:13;8.30;99.90
46336;DHT22;31365;48.858;8.530;2023-04-25T03:16:43;8.30;99.90
46336;DHT22;31365;48.858;8.530;2023-04-25T03:19:12;8.30;99.90
46336;DHT22;31365;48.858;8.530;2023-04-25T03:21:43;8.20;99.90
46336;DHT22;31365;48.858;8.530;2023-04-25T03:24:13;8.20;99.90
46336;DHT22;31365;48.858;8.530;2023-04-25T03:26:41;8.20;99.90
46336;DHT22;31365;48.858;8.530;2023-04-25T03:29:09;8.20;99.90
46336;DHT22;31365;48.858;8.530;2023-04-25T03:31:39;8.30;99.90
46336;DHT22;31365;48.858;8.530;2023-04-25T03:34:10;8.30;99.90
46336;DHT22;31365;48.858;8.530;2023-04-25T03:36:38;8.30;99.90
46336;DHT22;31365;48.858;8.530;2023-04-25T03:39:07;8.20;99.90
46336;DHT22;31365;48.858;8.530;2023-04-25T03:41:36;8.20;99.90
46336;DHT22;31365;48.858;8.530;2023-04-25T03:44:11;8.20;99.90
46336;DHT22;31365;48.858;8.530;2023-04-25T03:46:39;8.20;99.90
46336;DHT22;31365;48.858;8.530;2023-04-25T03:49:07;8.20;99.90
46336;DHT22;31365;48.858;8.530;2023-04-25T03:52:06;8.20;99.90
46336;DHT22;31365;48.858;8.530;2023-04-25T03:54:38;8.20;99.90
46336;DHT22;31365;48.858;8.530;2023-04-25T03:57:16;8.30;99.90
46336;DHT22;31365;48.858;8.530;2023-04-25T03:59:44;8.20;99.90
46336;DHT22;31365;48.858;8.530;2023-04-25T04:02:13;8.30;99.90
46336;DHT22;31365;48.858;8.530;2023-04-25T04:04:42;8.30;99.90
46336;DHT22;31365;48.858;8.530;2023-04-25T04:07:13;8.30;99.90
46336;DHT22;31365;48.858;8.530;2023-04-25T04:09:44;8.30;99.90
46336;DHT22;31365;48.858;8.530;2023-04-25T04:12:18;8.30;99.90
46336;DHT22;31365;48.858;8.530;2023-04-25T04:14:47;8.30;99.90
46336;DHT22;31365;48.858;8.530;2023-04-25T04:17:15;8.30;99.90
46336;DHT22;31365;48.858;8.530;2023-04-25T04:19:43;8.30;99.90
46336;DHT22;31365;48.858;8.530;2023-04-25T04:22:17;8.30;99.90
46336;DHT22;31365;48.858;8.530;2023-04-25T04:24:46;8.30;99.90
46336;DHT22;31365;48.858;8.530;2023-04-25T04:27:21;8.30;99.90
46336;DHT22;31365;48.858;8.530;2023-04-25T04:30:16;8.30;99.90
46336;DHT22;31365;48.858;8.530;2023-04-25T04:32:53;8.30;99.90
46336;DHT22;31365;48.858;8.530;2023-04-25T04:35:22;8.30;99.90
46336;DHT22;31365;48.858;8.530;2023-04-25T04:37:52;8.30;99.90
46336;DHT22;31365;48.858;8.530;2023-04-25T04:40:22;8.30;99.90
46336;DHT22;31365;48.858;8.530;2023-04-25T04:42:54;8.20;99.90
46336;DHT22;31365;48.858;8.530;2023-04-25T04:45:42;8.30;99.90
46336;DHT22;31365;48.858;8.530;2023-04-25T04:48:31;8.30;99.90
46336;DHT22;31365;48.858;8.530;2023-04-25T04:51:19;8.30;99.90
46336;DHT22;31365;48.858;8.530;2023-04-25T04:54:06;8.30;99.90
46336;DHT22;31365;48.858;8.530;2023-04-25T04:56:54;8.30;99.90
46336;DHT22;31365;48.858;8.530;2023-04-25T04:59:28;8.40;99.90
46336;DHT22;31365;48.858;8.530;2023-04-25T05:02:15;8.40;99.90
46336;DHT22;31365;48.858;8.530;2023-04-25T05:04:43;8.40;99.90
46336;DHT22;31365;48.858;8.530;2023-04-25T05:07:30;8.40;99.90
46336;DHT22;31365;48.858;8.530;2023-04-25T05:10:28;8.40;99.90
46336;DHT22;31365;48.858;8.530;2023-04-25T05:13:23;8.40;99.90
46336;DHT22;31365;48.858;8.530;2023-04-25T05:16:11;8.50;99.90
46336;DHT22;31365;48.858;8.530;2023-04-25T05:18:57;8.50;99.90
46336;DHT22;31365;48.858;8.530;2023-04-25T05:21:37;8.50;99.90
46336;DHT22;31365;48.858;8.530;2023-04-25T05:24:09;8.50;99.90
46336;DHT22;31365;48.858;8.530;2023-04-25T05:26:57;8.50;99.90
46336;DHT22;31365;48.858;8.530;2023-04-25T05:30:05;8.50;99.90
46336;DHT22;31365;48.858;8.530;2023-04-25T05:32:51;8.50;99.90
46336;DHT22;31365;48.858;8.530;2023-04-25T05:35:19;8.50;99.90
46336;DHT22;31365;48.858;8.530;2023-04-25T05:37:49;8.50;99.90
46336;DHT22;31365;48.858;8.530;2023-04-25T05:40:22;8.50;99.90
46336;DHT22;31365;48.858;8.530;2023-04-25T05:43:00;8.50;99.90
46336;DHT22;31365;48.858;8.530;2023-04-25T05:45:44;8.60;99.90
46336;DHT22;31365;48.858;8.530;2023-04-25T05:48:29;8.60;99.90
46336;DHT22;31365;48.858;8.530;2023-04-25T05:51:04;8.60;99.90
46336;DHT22;31365;48.858;8.530;2023-04-25T05:53:46;8.50;99.90
46336;DHT22;31365;48.858;8.530;2023-04-25T05:56:15;8.50;99.90
46336;DHT22;31365;48.858;8.530;2023-04-25T05:58:47;8.50;99.90
46336;DHT22;31365;48.858;8.530;2023-04-25T06:01:15;8.50;99.90
46336;DHT22;31365;48.858;8.530;2023-04-25T06:03:44;8.50;99.90
46336;DHT22;31365;48.858;8.530;2023-04-25T06:06:12;8.50;99.90
46336;DHT22;31365;48.858;8.530;2023-04-25T06:08:40;8.50;99.90
46336;DHT22;31365;48.858;8.530;2023-04-25T06:11:10;8.50;99.90
46336;DHT22;31365;48.858;8.530;2023-04-25T06:13:38;8.40;99.90
46336;DHT22;31365;48.858;8.530;2023-04-25T06:16:08;8.40;99.90
46336;DHT22;31365;48.858;8.530;2023-04-25T06:18:36;8.50;99.90
46336;DHT22;31365;48.858;8.530;2023-04-25T06:21:05;8.40;99.90
46336;DHT22;31365;48.858;8.530;2023-04-25T06:23:33;8.40;99.90
46336;DHT22;31365;48.858;8.530;2023-04-25T06:26:04;8.40;99.90
46336;DHT22;31365;48.858;8.530;2023-04-25T06:28:34;8.40;99.90
46336;DHT22;31365;48.858;8.530;2023-04-25T06:31:02;8.40;99.90
46336;DHT22;31365;48.858;8.530;2023-04-25T06:33:32;8.50;99.90
46336;DHT22;31365;48.858;8.530;2023-04-25T06:36:02;8.50;99.90
46336;DHT22;31365;48.858;8.530;2023-04-25T06:38:31;8.40;99.90
46336;DHT22;31365;48.858;8.530;2023-04-25T06:41:00;8.40;99.90
46336;DHT22;31365;48.858;8.530;2023-04-25T06:43:30;8.40;99.90
46336;DHT22;31365;48.858;8.530;2023-04-25T06:46:17;8.40;99.90
46336;DHT22;31365;48.858;8.530;2023-04-25T06:48:49;8.40;99.90
46336;DHT22;31365;48.858;8.530;2023-04-25T06:51:19;8.40;99.90
46336;DHT22;31365;48.858;8.530;2023-04-25T06:53:52;8.40;99.90
46336;DHT22;31365;48.858;8.530;2023-04-25T06:56:28;8.50;99.90
46336;DHT22;31365;48.858;8.530;2023-04-25T06:59:06;8.50;99.90
46336;DHT22;31365;48.858;8.530;2023-04-25T07:01:37;8.50;99.90
46336;DHT22;31365;48.858;8.530;2023-04-25T07:04:11;8.50;99.90
46336;DHT22;31365;48.858;8.530;2023-04-25T07:06:45;8.50;99.90
46336;DHT22;31365;48.858;8.530;2023-04-25T07:09:18;8.60;99.90
46336;DHT22;31365;48.858;8.530;2023-04-25T07:11:48;8.60;99.90
46336;DHT22;31365;48.858;8.530;2023-04-25T07:14:16;8.60;99.90
46336;DHT22;31365;48.858;8.530;2023-04-25T07:16:44;8.60;99.90
46336;DHT22;31365;48.858;8.530;2023-04-25T07:19:14;8.60;99.90
46336;DHT22;31365;48.858;8.530;2023-04-25T07:21:43;8.60;99.90
46336;DHT22;31365;48.858;8.530;2023-04-25T07:24:11;8.70;99.90
46336;DHT22;31365;48.858;8.530;2023-04-25T07:26:44;8.60;99.90
46336;DHT22;31365;48.858;8.530;2023-04-25T07:29:22;8.60;99.90
46336;DHT22;31365;48.858;8.530;2023-04-25T07:31:50;8.50;99.90
46336;DHT22;31365;48.858;8.530;2023-04-25T07:34:22;8.40;99.90
46336;DHT22;31365;48.858;8.530;2023-04-25T07:36:50;8.40;99.90
46336;DHT22;31365;48.858;8.530;2023-04-25T07:39:19;8.50;99.90
46336;DHT22;31365;48.858;8.530;2023-04-25T07:41:50;8.40;99.90
46336;DHT22;31365;48.858;8.530;2023-04-25T07:44:25;8.50;99.90
46336;DHT22;31365;48.858;8.530;2023-04-25T07:46:53;8.50;99.90
46336;DHT22;31365;48.858;8.530;2023-04-25T07:49:24;8.50;99.90
46336;DHT22;31365;48.858;8.530;2023-04-25T07:51:53;8.50;99.90
46336;DHT22;31365;48.858;8.530;2023-04-25T07:54:21;8.50;99.90
46336;DHT22;31365;48.858;8.530;2023-04-25T07:56:59;8.50;99.90
46336;DHT22;31365;48.858;8.530;2023-04-25T07:59:29;8.50;99.90
46336;DHT22;31365;48.858;8.530;2023-04-25T08:02:00;8.50;99.90
46336;DHT22;31365;48.858;8.530;2023-04-25T08:04:30;8.50;99.90
46336;DHT22;31365;48.858;8.530;2023-04-25T08:07:04;8.40;99.90
46336;DHT22;31365;48.858;8.530;2023-04-25T08:09:44;8.40;99.90
46336;DHT22;31365;48.858;8.530;2023-04-25T08:12:21;8.40;99.90
46336;DHT22;31365;48.858;8.530;2023-04-25T08:14:50;8.40;99.90
46336;DHT22;31365;48.858;8.530;2023-04-25T08:17:19;8.40;99.90
46336;DHT22;31365;48.858;8.530;2023-04-25T08:19:48;8.30;99.90
46336;DHT22;31365;48.858;8.530;2023-04-25T08:22:29;8.30;99.90
46336;DHT22;31365;48.858;8.530;2023-04-25T08:25:14;8.30;99.90
46336;DHT22;31365;48.858;8.530;2023-04-25T08:27:43;8.20;99.90
46336;DHT22;31365;48.858;8.530;2023-04-25T08:30:12;8.20;99.90
46336;DHT22;31365;48.858;8.530;2023-04-25T08:32:42;8.30;99.90
46336;DHT22;31365;48.858;8.530;2023-04-25T08:35:44;8.20;99.90
46336;DHT22;31365;48.858;8.530;2023-04-25T08:38:13;8.30;99.90
46336;DHT22;31365;48.858;8.530;2023-04-25T08:40:43;8.30;99.90
46336;DHT22;31365;48.858;8.530;2023-04-25T08:43:18;8.20;99.90
46336;DHT22;31365;48.858;8.530;2023-04-25T08:45:47;8.20;99.90
46336;DHT22;31365;48.858;8.530;2023-04-25T08:48:53;8.30;99.90
46336;DHT22;31365;48.858;8.530;2023-04-25T08:51:27;8.30;99.90
46336;DHT22;31365;48.858;8.530;2023-04-25T08:54:10;8.20;99.90
46336;DHT22;31365;48.858;8.530;2023-04-25T08:56:45;8.30;99.90
46336;DHT22;31365;48.858;8.530;2023-04-25T08:59:15;8.30;99.90
46336;DHT22;31365;48.858;8.530;2023-04-25T09:01:46;8.20;99.90
46336;DHT22;31365;48.858;8.530;2023-04-25T09:04:15;8.30;99.90
46336;DHT22;31365;48.858;8.530;2023-04-25T09:06:45;8.20;99.90
46336;DHT22;31365;48.858;8.530;2023-04-25T09:09:13;8.10;99.90
46336;DHT22;31365;48.858;8.530;2023-04-25T09:11:41;8.00;99.90
46336;DHT22;31365;48.858;8.530;2023-04-25T09:14:13;8.10;99.90
46336;DHT22;31365;48.858;8.530;2023-04-25T09:17:04;8.00;99.90
46336;DHT22;31365;48.858;8.530;2023-04-25T09:19:40;8.00;99.90
46336;DHT22;31365;48.858;8.530;2023-04-25T09:22:17;7.90;99.90
46336;DHT22;31365;48.858;8.530;2023-04-25T09:24:48;8.00;99.90
46336;DHT22;31365;48.858;8.530;2023-04-25T09:27:20;8.10;99.90
46336;DHT22;31365;48.858;8.530;2023-04-25T09:29:57;8.10;99.90
46336;DHT22;31365;48.858;8.530;2023-04-25T09:32:32;8.00;99.90
46336;DHT22;31365;48.858;8.530;2023-04-25T09:35:00;7.90;99.90
46336;DHT22;31365;48.858;8.530;2023-04-25T09:37:30;7.90;99.90
46336;DHT22;31365;48.858;8.530;2023-04-25T09:40:06;8.00;99.90
46336;DHT22;31365;48.858;8.530;2023-04-25T09:42:50;8.20;99.90
46336;DHT22;31365;48.858;8.530;2023-04-25T09:45:18;8.40;99.90
46336;DHT22;31365;48.858;8.530;2023-04-25T09:47:48;8.40;99.90
46336;DHT22;31365;48.858;8.530;2023-04-25T09:50:23;8.30;99.90
46336;DHT22;31365;48.858;8.530;2023-04-25T09:53:05;8.40;99.90
46336;DHT22;31365;48.858;8.530;2023-04-25T09:55:53;8.40;99.90
46336;DHT22;31365;48.858;8.530;2023-04-25T09:58:24;8.50;99.90
46336;DHT22;31365;48.858;8.530;2023-04-25T10:00:53;8.50;99.90
46336;DHT22;31365;48.858;8.530;2023-04-25T10:03:34;8.40;99.90
46336;DHT22;31365;48.858;8.530;2023-04-25T10:06:19;8.40;99.90
46336;DHT22;31365;48.858;8.530;2023-04-25T10:08:51;8.60;99.90
46336;DHT22;31365;48.858;8.530;2023-04-25T10:11:24;8.70;99.90
46336;DHT22;31365;48.858;8.530;2023-04-25T10:13:54;8.90;99.90
46336;DHT22;31365;48.858;8.530;2023-04-25T10:16:24;8.90;99.90
46336;DHT22;31365;48.858;8.530;2023-04-25T10:18:53;8.90;99.90
46336;DHT22;31365;48.858;8.530;2023-04-25T10:21:23;9.00;99.90
46336;DHT22;31365;48.858;8.530;2023-04-25T10:23:55;9.20;99.90
46336;DHT22;31365;48.858;8.530;2023-04-25T10:26:24;9.20;99.90
46336;DHT22;31365;48.858;8.530;2023-04-25T10:28:56;9.30;99.90
46336;DHT22;31365;48.858;8.530;2023-04-25T10:31:25;9.30;99.90
46336;DHT22;31365;48.858;8.530;2023-04-25T10:33:54;9.30;99.90
46336;DHT22;31365;48.858;8.530;2023-04-25T10:36:23;9.20;99.90
46336;DHT22;31365;48.858;8.530;2023-04-25T10:38:52;9.10;99.90
46336;DHT22;31365;48.858;8.530;2023-04-25T10:41:22;9.00;99.90
46336;DHT22;31365;48.858;8.530;2023-04-25T10:43:59;8.70;99.90
46336;DHT22;31365;48.858;8.530;2023-04-25T10:46:29;8.50;99.90
46336;DHT22;31365;48.858;8.530;2023-04-25T10:48:59;8.50;99.90
46336;DHT22;31365;48.858;8.530;2023-04-25T10:51:29;8.40;99.90
46336;DHT22;31365;48.858;8.530;2023-04-25T10:54:19;8.50;99.90
46336;DHT22;31365;48.858;8.530;2023-04-25T10:56:49;8.40;99.90
46336;DHT22;31365;48.858;8.530;2023-04-25T10:59:20;8.50;99.90
46336;DHT22;31365;48.858;8.530;2023-04-25T11:01:52;8.50;99.90
46336;DHT22;31365;48.858;8.530;2023-04-25T11:04:23;8.50;99.90
46336;DHT22;31365;48.858;8.530;2023-04-25T11:07:16;8.50;99.90
46336;DHT22;31365;48.858;8.530;2023-04-25T11:09:53;8.60;99.90
46336;DHT22;31365;48.858;8.530;2023-04-25T11:12:25;8.60;99.90
46336;DHT22;31365;48.858;8.530;2023-04-25T11:14:58;8.60;99.90
46336;DHT22;31365;48.858;8.530;2023-04-25T11:17:29;8.70;99.90
46336;DHT22;31365;48.858;8.530;2023-04-25T11:19:57;8.80;99.90
46336;DHT22;31365;48.858;8.530;2023-04-25T11:22:26;8.80;99.90
46336;DHT22;31365;48.858;8.530;2023-04-25T11:24:56;8.90;99.90
46336;DHT22;31365;48.858;8.530;2023-04-25T11:27:26;8.80;99.90
46336;DHT22;31365;48.858;8.530;2023-04-25T11:29:54;8.80;99.90
46336;DHT22;31365;48.858;8.530;2023-04-25T11:32:23;8.70;99.90
46336;DHT22;31365;48.858;8.530;2023-04-25T11:34:53;8.60;99.90
46336;DHT22;31365;48.858;8.530;2023-04-25T11:37:21;8.50;99.90
46336;DHT22;31365;48.858;8.530;2023-04-25T11:39:49;8.50;99.90
46336;DHT22;31365;48.858;8.530;2023-04-25T11:42:19;8.60;99.90
46336;DHT22;31365;48.858;8.530;2023-04-25T11:44:48;8.60;99.90
46336;DHT22;31365;48.858;8.530;2023-04-25T11:47:17;8.80;99.90
46336;DHT22;31365;48.858;8.530;2023-04-25T11:49:45;9.00;99.90
46336;DHT22;31365;48.858;8.530;2023-04-25T11:52:13;9.20;99.90
46336;DHT22;31365;48.858;8.530;2023-04-25T11:54:41;9.30;99.90
46336;DHT22;31365;48.858;8.530;2023-04-25T11:57:12;9.50;99.90
46336;DHT22;31365;48.858;8.530;2023-04-25T11:59:40;9.60;99.90
46336;DHT22;31365;48.858;8.530;2023-04-25T12:02:09;9.70;99.90
46336;DHT22;31365;48.858;8.530;2023-04-25T12:04:52;9.80;99.90
46336;DHT22;31365;48.858;8.530;2023-04-25T12:07:21;9.90;99.90
46336;DHT22;31365;48.858;8.530;2023-04-25T12:09:51;9.90;99.90
46336;DHT22;31365;48.858;8.530;2023-04-25T12:12:20;9.90;99.90
46336;DHT22;31365;48.858;8.530;2023-04-25T12:14:48;9.90;99.90
46336;DHT22;31365;48.858;8.530;2023-04-25T12:17:18;10.00;99.90
46336;DHT22;31365;48.858;8.530;2023-04-25T12:19:46;10.10;99.90
46336;DHT22;31365;48.858;8.530;2023-04-25T12:22:24;10.10;99.90
46336;DHT22;31365;48.858;8.530;2023-04-25T12:24:53;10.10;99.90
46336;DHT22;31365;48.858;8.530;2023-04-25T12:27:25;10.10;99.90
46336;DHT22;31365;48.858;8.530;2023-04-25T12:29:56;10.10;99.90
46336;DHT22;31365;48.858;8.530;2023-04-25T12:32:26;10.10;99.90
46336;DHT22;31365;48.858;8.530;2023-04-25T12:34:56;10.20;99.90
46336;DHT22;31365;48.858;8.530;2023-04-25T12:37:24;10.20;99.90
46336;DHT22;31365;48.858;8.530;2023-04-25T12:39:52;10.30;99.90
46336;DHT22;31365;48.858;8.530;2023-04-25T12:42:20;10.30;99.90
46336;DHT22;31365;48.858;8.530;2023-04-25T12:44:49;10.20;99.90
46336;DHT22;31365;48.858;8.530;2023-04-25T12:47:17;10.30;99.90
46336;DHT22;31365;48.858;8.530;2023-04-25T12:49:46;10.20;99.90
46336;DHT22;31365;48.858;8.530;2023-04-25T12:52:15;10.30;99.90
46336;DHT22;31365;48.858;8.530;2023-04-25T12:54:43;10.30;99.90
46336;DHT22;31365;48.858;8.530;2023-04-25T12:57:12;10.20;99.90
46336;DHT22;31365;48.858;8.530;2023-04-25T12:59:40;10.20;99.90
46336;DHT22;31365;48.858;8.530;2023-04-25T13:02:08;10.10;99.90
46336;DHT22;31365;48.858;8.530;2023-04-25T13:04:37;9.90;99.90
46336;DHT22;31365;48.858;8.530;2023-04-25T13:07:07;9.70;99.90
46336;DHT22;31365;48.858;8.530;2023-04-25T13:09:35;9.60;99.90
46336;DHT22;31365;48.858;8.530;2023-04-25T13:12:03;9.40;99.90
46336;DHT22;31365;48.858;8.530;2023-04-25T13:14:32;9.30;99.90
46336;DHT22;31365;48.858;8.530;2023-04-25T13:17:00;9.30;99.90
46336;DHT22;31365;48.858;8.530;2023-04-25T13:19:28;9.40;99.90
46336;DHT22;31365;48.858;8.530;2023-04-25T13:21:57;9.40;99.90
46336;DHT22;31365;48.858;8.530;2023-04-25T13:24:27;9.40;99.90
46336;DHT22;31365;48.858;8.530;2023-04-25T13:26:55;9.40;99.90
46336;DHT22;31365;48.858;8.530;2023-04-25T13:29:23;9.40;99.90
46336;DHT22;31365;48.858;8.530;2023-04-25T13:31:52;9.50;99.90
46336;DHT22;31365;48.858;8.530;2023-04-25T13:34:20;9.60;99.90
46336;DHT22;31365;48.858;8.530;2023-04-25T13:36:48;9.60;99.90
46336;DHT22;31365;48.858;8.530;2023-04-25T13:39:16;9.80;99.90
46336;DHT22;31365;48.858;8.530;2023-04-25T13:41:46;9.80;99.90
46336;DHT22;31365;48.858;8.530;2023-04-25T13:44:14;9.90;99.90
46336;DHT22;31365;48.858;8.530;2023-04-25T13:46:42;10.10;99.90
46336;DHT22;31365;48.858;8.530;2023-04-25T13:49:13;10.20;99.90
46336;DHT22;31365;48.858;8.530;2023-04-25T13:51:42;10.20;99.90
46336;DHT22;31365;48.858;8.530;2023-04-25T13:54:10;10.20;99.90
46336;DHT22;31365;48.858;8.530;2023-04-25T13:56:38;10.30;99.90
46336;DHT22;31365;48.858;8.530;2023-04-25T13:59:10;10.50;99.90
46336;DHT22;31365;48.858;8.530;2023-04-25T14:01:38;10.70;99.90
46336;DHT22;31365;48.858;8.530;2023-04-25T14:04:07;10.90;99.90
46336;DHT22;31365;48.858;8.530;2023-04-25T14:06:36;11.20;99.90
46336;DHT22;31365;48.858;8.530;2023-04-25T14:09:04;11.50;99.90
46336;DHT22;31365;48.858;8.530;2023-04-25T14:11:33;11.80;99.90
46336;DHT22;31365;48.858;8.530;2023-04-25T14:14:01;12.10;99.90
46336;DHT22;31365;48.858;8.530;2023-04-25T14:16:31;12.50;99.90
46336;DHT22;31365;48.858;8.530;2023-04-25T14:18:59;12.90;99.90
46336;DHT22;31365;48.858;8.530;2023-04-25T14:21:29;13.60;99.90
46336;DHT22;31365;48.858;8.530;2023-04-25T14:23:58;14.80;99.90
46336;DHT22;31365;48.858;8.530;2023-04-25T14:26:26;15.60;99.90
46336;DHT22;31365;48.858;8.530;2023-04-25T14:28:55;16.90;99.90
46336;DHT22;31365;48.858;8.530;2023-04-25T14:31:23;18.30;99.90
46336;DHT22;31365;48.858;8.530;2023-04-25T14:33:53;18.40;99.90
46336;DHT22;31365;48.858;8.530;2023-04-25T14:36:26;18.80;99.90
46336;DHT22;31365;48.858;8.530;2023-04-25T14:38:55;19.60;99.90
46336;DHT22;31365;48.858;8.530;2023-04-25T14:41:24;20.10;99.90
46336;DHT22;31365;48.858;8.530;2023-04-25T14:43:53;20.00;99.90
46336;DHT22;31365;48.858;8.530;2023-04-25T14:46:23;19.30;99.90
46336;DHT22;31365;48.858;8.530;2023-04-25T14:48:53;19.30;99.90
46336;DHT22;31365;48.858;8.530;2023-04-25T14:51:23;19.30;99.90
46336;DHT22;31365;48.858;8.530;2023-04-25T14:53:53;19.40;99.90
46336;DHT22;31365;48.858;8.530;2023-04-25T14:56:21;19.70;99.90
46336;DHT22;31365;48.858;8.530;2023-04-25T14:58:49;19.80;99.90
46336;DHT22;31365;48.858;8.530;2023-04-25T15:01:17;19.80;99.90
46336;DHT22;31365;48.858;8.530;2023-04-25T15:03:47;19.50;99.90
46336;DHT22;31365;48.858;8.530;2023-04-25T15:06:18;19.00;99.90
46336;DHT22;31365;48.858;8.530;2023-04-25T15:08:46;18.20;99.90
46336;DHT22;31365;48.858;8.530;2023-04-25T15:11:14;17.30;99.90
46336;DHT22;31365;48.858;8.530;2023-04-25T15:13:43;16.40;99.90
46336;DHT22;31365;48.858;8.530;2023-04-25T15:16:11;15.90;99.90
46336;DHT22;31365;48.858;8.530;2023-04-25T15:18:39;15.50;99.90
46336;DHT22;31365;48.858;8.530;2023-04-25T15:21:08;15.00;99.90
46336;DHT22;31365;48.858;8.530;2023-04-25T15:23:38;14.60;99.90
46336;DHT22;31365;48.858;8.530;2023-04-25T15:26:08;14.30;99.90
46336;DHT22;31365;48.858;8.530;2023-04-25T15:28:36;14.10;99.90
46336;DHT22;31365;48.858;8.530;2023-04-25T15:31:04;13.90;99.90
46336;DHT22;31365;48.858;8.530;2023-04-25T15:33:33;13.60;99.90
46336;DHT22;31365;48.858;8.530;2023-04-25T15:36:01;13.30;99.90
46336;DHT22;31365;48.858;8.530;2023-04-25T15:38:30;13.10;99.90
46336;DHT22;31365;48.858;8.530;2023-04-25T15:41:00;12.90;99.90
46336;DHT22;31365;48.858;8.530;2023-04-25T15:43:31;12.70;99.90
46336;DHT22;31365;48.858;8.530;2023-04-25T15:46:02;12.50;99.90
46336;DHT22;31365;48.858;8.530;2023-04-25T15:48:30;12.30;99.90
46336;DHT22;31365;48.858;8.530;2023-04-25T15:50:59;12.10;99.90
46336;DHT22;31365;48.858;8.530;2023-04-25T15:53:27;11.90;99.90
46336;DHT22;31365;48.858;8.530;2023-04-25T15:55:55;11.70;99.90
46336;DHT22;31365;48.858;8.530;2023-04-25T15:58:25;11.60;99.90
46336;DHT22;31365;48.858;8.530;2023-04-25T16:00:53;11.50;99.90
46336;DHT22;31365;48.858;8.530;2023-04-25T16:03:23;11.40;99.90
46336;DHT22;31365;48.858;8.530;2023-04-25T16:05:51;11.40;99.90
46336;DHT22;31365;48.858;8.530;2023-04-25T16:08:20;11.40;99.90
46336;DHT22;31365;48.858;8.530;2023-04-25T16:10:48;11.30;99.90